createdAt,value
2019-01-24T00:00:35.110Z,86.87
2019-01-24T00:01:35.108Z,86.40
2019-01-24T00:02:35.103Z,86.02
2019-01-24T00:03:35.104Z,86.11
2019-01-24T00:04:35.105Z,85.46
2019-01-24T00:05:35.104Z,84.70
2019-01-24T00:06:35.108Z,84.80
2019-01-24T00:07:35.105Z,84.61
2019-01-24T00:08:35.106Z,84.23
2019-01-24T00:09:35.106Z,84.42
2019-01-24T00:10:35.106Z,83.95
2019-01-24T00:11:35.108Z,83.95
2019-01-24T00:12:35.107Z,83.86
2019-01-24T00:13:35.106Z,83.39
2019-01-24T00:14:35.105Z,83.58
2019-01-24T00:15:35.106Z,84.42
2019-01-24T00:16:35.106Z,84.70
2019-01-24T00:17:35.109Z,84.23
2019-01-24T00:18:35.109Z,84.23
2019-01-24T00:19:35.109Z,83.20
2019-01-24T00:20:35.106Z,82.92
2019-01-24T00:21:35.109Z,82.35
2019-01-24T00:22:35.108Z,82.82
2019-01-24T00:23:35.108Z,82.73
2019-01-24T00:24:35.111Z,82.63
2019-01-24T00:25:35.109Z,83.10
2019-01-24T00:26:35.110Z,82.92
2019-01-24T00:27:35.109Z,82.54
2019-01-24T00:28:35.108Z,82.54
2019-01-24T00:29:35.111Z,82.25
2019-01-24T00:30:35.116Z,82.35
2019-01-24T00:31:35.108Z,82.25
2019-01-24T00:32:35.109Z,82.35
2019-01-24T00:33:35.110Z,82.44
2019-01-24T00:34:35.110Z,83.01
2019-01-24T00:35:35.109Z,83.01
2019-01-24T00:36:35.108Z,82.73
2019-01-24T00:37:35.113Z,82.54
2019-01-24T00:38:35.109Z,82.73
2019-01-24T00:39:35.113Z,82.63
2019-01-24T00:40:35.116Z,82.44
2019-01-24T00:41:35.110Z,81.22
2019-01-24T00:42:35.110Z,81.03
2019-01-24T00:43:35.109Z,80.74
2019-01-24T00:44:35.111Z,80.74
2019-01-24T00:45:35.112Z,80.65
2019-01-24T00:46:35.109Z,80.65
2019-01-24T00:47:35.110Z,81.22
2019-01-24T00:48:35.112Z,80.74
2019-01-24T00:49:35.110Z,80.93
2019-01-24T00:50:35.110Z,80.84
2019-01-24T00:51:35.111Z,80.74
2019-01-24T00:52:35.114Z,80.37
2019-01-24T00:53:35.115Z,80.08
2019-01-24T00:54:35.110Z,79.71
2019-01-24T00:55:35.113Z,79.33
2019-01-24T00:56:35.115Z,78.49
2019-01-24T00:57:35.111Z,77.64
2019-01-24T00:58:35.117Z,78.20
2019-01-24T00:59:35.111Z,78.39
2019-01-24T01:00:35.113Z,78.30
2019-01-24T01:01:35.111Z,78.39
2019-01-24T01:02:35.111Z,77.64
2019-01-24T01:03:35.112Z,77.73
2019-01-24T01:04:35.115Z,78.30
2019-01-24T01:05:35.112Z,77.55
2019-01-24T01:06:35.113Z,77.36
2019-01-24T01:07:35.112Z,77.26
2019-01-24T01:08:35.111Z,76.51
2019-01-24T01:09:35.115Z,76.04
2019-01-24T01:10:35.112Z,76.60
2019-01-24T01:11:35.111Z,76.79
2019-01-24T01:12:35.112Z,76.41
2019-01-24T01:13:35.114Z,76.22
2019-01-24T01:14:35.110Z,75.56
2019-01-24T01:15:35.112Z,75.38
2019-01-24T01:16:35.110Z,75.00
2019-01-24T01:17:35.111Z,75.66
2019-01-24T01:18:35.112Z,75.75
2019-01-24T01:19:35.109Z,75.85
2019-01-24T01:20:35.114Z,76.32
2019-01-24T01:21:35.113Z,76.22
2019-01-24T01:22:35.109Z,76.04
2019-01-24T01:23:35.113Z,76.13
2019-01-24T01:24:35.109Z,76.04
2019-01-24T01:25:35.110Z,76.22
2019-01-24T01:26:35.110Z,76.60
2019-01-24T01:27:35.115Z,76.51
2019-01-24T01:28:35.111Z,76.70
2019-01-24T01:29:35.107Z,76.98
2019-01-24T01:30:35.111Z,77.17
2019-01-24T01:31:35.108Z,77.17
2019-01-24T01:32:35.108Z,77.07
2019-01-24T01:33:35.110Z,76.79
2019-01-24T01:34:36.383Z,76.60
2019-01-24T01:35:35.107Z,76.70
2019-01-24T01:36:35.109Z,76.70
2019-01-24T01:37:35.108Z,76.51
2019-01-24T01:38:35.109Z,76.70
2019-01-24T01:39:35.108Z,76.51
2019-01-24T01:40:35.105Z,76.41
2019-01-24T01:41:35.110Z,76.60
2019-01-24T01:42:35.106Z,76.51
2019-01-24T01:43:35.105Z,76.04
2019-01-24T01:44:35.106Z,76.22
2019-01-24T01:45:35.107Z,76.41
2019-01-24T01:46:35.108Z,76.70
2019-01-24T01:47:35.105Z,76.70
2019-01-24T01:48:35.106Z,76.60
2019-01-24T01:49:35.106Z,76.60
2019-01-24T01:50:35.104Z,76.13
2019-01-24T01:51:35.104Z,76.22
2019-01-24T01:52:35.104Z,76.70
2019-01-24T01:53:35.105Z,76.89
2019-01-24T01:54:35.106Z,76.94
2019-01-24T01:55:35.128Z,76.84
2019-01-24T01:56:35.106Z,77.69
2019-01-24T01:57:35.103Z,77.22
2019-01-24T01:58:35.105Z,77.50
2019-01-24T01:59:35.104Z,77.69
2019-01-24T02:00:35.125Z,77.60
2019-01-24T02:01:35.104Z,77.60
2019-01-24T02:02:35.104Z,77.88
2019-01-24T02:03:35.100Z,77.50
2019-01-24T02:04:35.105Z,78.07
2019-01-24T02:05:35.103Z,77.60
2019-01-24T02:06:35.108Z,77.60
2019-01-24T02:07:35.102Z,77.88
2019-01-24T02:08:35.098Z,77.69
2019-01-24T02:09:35.098Z,77.60
2019-01-24T02:10:35.099Z,78.54
2019-01-24T02:11:35.099Z,78.35
2019-01-24T02:12:35.095Z,78.44
2019-01-24T02:13:35.097Z,78.54
2019-01-24T02:14:35.098Z,77.78
2019-01-24T02:15:35.094Z,77.60
2019-01-24T02:16:35.095Z,77.88
2019-01-24T02:17:35.099Z,77.78
2019-01-24T02:18:35.091Z,76.84
2019-01-24T02:19:35.091Z,76.65
2019-01-24T02:20:35.094Z,75.99
2019-01-24T02:21:35.090Z,75.34
2019-01-24T02:22:35.090Z,75.52
2019-01-24T02:23:35.088Z,75.52
2019-01-24T02:24:35.087Z,74.87
2019-01-24T02:25:35.089Z,74.58
2019-01-24T02:26:35.088Z,74.58
2019-01-24T02:27:35.086Z,74.58
2019-01-24T02:28:35.087Z,74.68
2019-01-24T02:29:35.087Z,74.02
2019-01-24T02:30:35.084Z,74.40
2019-01-24T02:31:35.082Z,74.30
2019-01-24T02:32:35.085Z,74.21
2019-01-24T02:33:35.084Z,74.11
2019-01-24T02:34:35.081Z,74.02
2019-01-24T02:35:35.082Z,74.21
2019-01-24T02:36:35.081Z,74.30
2019-01-24T02:37:35.081Z,74.49
2019-01-24T02:38:35.081Z,74.77
2019-01-24T02:39:35.077Z,74.49
2019-01-24T02:40:35.077Z,74.96
2019-01-24T02:41:35.078Z,74.49
2019-01-24T02:42:35.079Z,75.15
2019-01-24T02:43:35.077Z,75.24
2019-01-24T02:44:35.076Z,75.24
2019-01-24T02:45:35.075Z,74.96
2019-01-24T02:46:35.075Z,74.68
2019-01-24T02:47:35.074Z,74.77
2019-01-24T02:48:35.073Z,74.49
2019-01-24T02:49:35.071Z,75.52
2019-01-24T02:50:35.072Z,75.15
2019-01-24T02:51:35.077Z,75.52
2019-01-24T02:52:35.069Z,75.43
2019-01-24T02:53:35.071Z,75.43
2019-01-24T02:54:35.071Z,75.62
2019-01-24T02:55:35.068Z,75.71
2019-01-24T02:56:35.067Z,75.52
2019-01-24T02:57:35.069Z,75.62
2019-01-24T02:58:35.068Z,74.96
2019-01-24T02:59:35.066Z,75.34
2019-01-24T03:00:35.063Z,74.58
2019-01-24T03:01:35.064Z,74.87
2019-01-24T03:02:35.073Z,75.15
2019-01-24T03:03:35.066Z,74.77
2019-01-24T03:04:35.064Z,74.49
2019-01-24T03:05:35.064Z,74.68
2019-01-24T03:06:35.065Z,74.96
2019-01-24T03:07:35.062Z,74.58
2019-01-24T03:08:35.063Z,74.68
2019-01-24T03:09:35.061Z,74.49
2019-01-24T03:10:35.058Z,75.24
2019-01-24T03:11:35.062Z,75.24
2019-01-24T03:12:35.056Z,75.52
2019-01-24T03:13:35.063Z,75.52
2019-01-24T03:14:35.058Z,75.34
2019-01-24T03:15:35.052Z,75.52
2019-01-24T03:16:35.052Z,75.71
2019-01-24T03:17:35.052Z,75.71
2019-01-24T03:18:35.051Z,76.28
2019-01-24T03:19:35.051Z,76.18
2019-01-24T03:20:35.047Z,75.99
2019-01-24T03:21:35.050Z,76.09
2019-01-24T03:22:35.049Z,77.03
2019-01-24T03:23:35.045Z,76.94
2019-01-24T03:24:35.044Z,76.18
2019-01-24T03:25:35.043Z,76.18
2019-01-24T03:26:35.049Z,76.18
2019-01-24T03:27:35.043Z,76.18
2019-01-24T03:28:35.042Z,75.52
2019-01-24T03:29:35.040Z,75.71
2019-01-24T03:30:35.040Z,75.15
2019-01-24T03:31:35.040Z,75.43
2019-01-24T03:32:35.042Z,74.58
2019-01-24T03:33:35.037Z,74.58
2019-01-24T03:34:35.036Z,74.58
2019-01-24T03:35:35.038Z,74.96
2019-01-24T03:36:35.034Z,74.21
2019-01-24T03:37:35.033Z,74.40
2019-01-24T03:38:35.033Z,74.21
2019-01-24T03:39:35.031Z,73.93
2019-01-24T03:40:35.031Z,73.74
2019-01-24T03:41:35.031Z,73.46
2019-01-24T03:42:35.031Z,73.46
2019-01-24T03:43:35.027Z,73.36
2019-01-24T03:44:35.027Z,73.27
2019-01-24T03:45:35.025Z,73.17
2019-01-24T03:46:35.025Z,73.46
2019-01-24T03:47:35.024Z,73.08
2019-01-24T03:48:35.022Z,73.36
2019-01-24T03:49:35.022Z,73.46
2019-01-24T03:50:35.033Z,73.65
2019-01-24T03:51:35.019Z,74.02
2019-01-24T03:52:35.019Z,74.21
2019-01-24T03:53:35.017Z,74.40
2019-01-24T03:54:35.015Z,73.74
2019-01-24T03:55:35.013Z,73.55
2019-01-24T03:56:35.019Z,73.83
2019-01-24T03:57:35.016Z,73.46
2019-01-24T03:58:35.011Z,73.27
2019-01-24T03:59:35.009Z,72.80
2019-01-24T04:00:35.010Z,72.70
2019-01-24T04:01:35.009Z,72.51
2019-01-24T04:02:35.009Z,72.99
2019-01-24T04:03:35.007Z,72.70
2019-01-24T04:04:35.013Z,72.89
2019-01-24T04:05:35.006Z,72.61
2019-01-24T04:06:35.006Z,72.99
2019-01-24T04:07:35.001Z,72.61
2019-01-24T04:08:35.004Z,72.89
2019-01-24T04:09:35.003Z,73.27
2019-01-24T04:10:35.002Z,73.27
2019-01-24T04:11:35.000Z,73.46
2019-01-24T04:12:34.999Z,73.55
2019-01-24T04:13:34.995Z,73.93
2019-01-24T04:14:34.995Z,73.55
2019-01-24T04:15:34.997Z,73.83
2019-01-24T04:16:34.992Z,74.40
2019-01-24T04:17:34.993Z,74.02
2019-01-24T04:18:34.991Z,74.68
2019-01-24T04:19:34.990Z,74.96
2019-01-24T04:20:34.988Z,75.24
2019-01-24T04:21:34.987Z,74.87
2019-01-24T04:22:34.998Z,75.24
2019-01-24T04:23:34.983Z,75.05
2019-01-24T04:24:34.983Z,75.71
2019-01-24T04:25:34.981Z,75.62
2019-01-24T04:26:34.981Z,75.81
2019-01-24T04:27:34.982Z,75.62
2019-01-24T04:28:34.978Z,75.52
2019-01-24T04:29:34.978Z,75.05
2019-01-24T04:30:34.976Z,74.40
2019-01-24T04:31:34.972Z,74.58
2019-01-24T04:32:34.972Z,74.58
2019-01-24T04:33:34.981Z,74.30
2019-01-24T04:34:34.972Z,73.93
2019-01-24T04:35:34.970Z,74.58
2019-01-24T04:36:34.968Z,74.87
2019-01-24T04:37:34.969Z,74.58
2019-01-24T04:38:34.970Z,74.58
2019-01-24T04:39:34.964Z,74.11
2019-01-24T04:40:34.962Z,74.11
2019-01-24T04:41:34.963Z,74.40
2019-01-24T04:42:34.960Z,74.21
2019-01-24T04:43:34.963Z,74.21
2019-01-24T04:44:34.960Z,74.58
2019-01-24T04:45:34.957Z,74.77
2019-01-24T04:46:34.958Z,75.24
2019-01-24T04:47:34.953Z,75.24
2019-01-24T04:48:34.954Z,75.71
2019-01-24T04:49:34.951Z,77.50
2019-01-24T04:50:34.951Z,78.35
2019-01-24T04:51:34.948Z,80.14
2019-01-24T04:52:34.948Z,80.24
2019-01-24T04:53:34.946Z,82.50
2019-01-24T04:54:34.948Z,84.00
2019-01-24T04:55:34.943Z,86.07
2019-01-24T04:56:34.945Z,89.28
2019-01-24T04:57:34.945Z,90.88
2019-01-24T04:58:34.941Z,91.44
2019-01-24T04:59:34.939Z,92.29
2019-01-24T05:00:34.939Z,92.76
2019-01-24T05:01:34.937Z,92.95
2019-01-24T05:02:34.933Z,92.76
2019-01-24T05:03:34.933Z,93.61
2019-01-24T05:04:34.931Z,93.04
2019-01-24T05:05:34.934Z,93.23
2019-01-24T05:06:34.929Z,93.04
2019-01-24T05:07:34.924Z,93.23
2019-01-24T05:08:34.926Z,93.70
2019-01-24T05:09:34.922Z,93.79
2019-01-24T05:10:34.919Z,94.64
2019-01-24T05:11:34.925Z,95.59
2019-01-24T05:12:34.917Z,95.96
2019-01-24T05:13:34.918Z,96.44
2019-01-24T05:14:34.918Z,97.38
2019-01-24T05:15:34.914Z,97.09
2019-01-24T05:16:34.912Z,97.38
2019-01-24T05:17:34.926Z,97.66
2019-01-24T05:18:34.909Z,97.94
2019-01-24T05:19:34.909Z,98.60
2019-01-24T05:20:34.916Z,98.32
2019-01-24T05:21:34.910Z,98.50
2019-01-24T05:22:34.909Z,97.38
2019-01-24T05:23:34.901Z,97.56
2019-01-24T05:24:34.902Z,97.47
2019-01-24T05:25:34.902Z,98.03
2019-01-24T05:26:34.899Z,98.03
2019-01-24T05:27:34.903Z,98.32
2019-01-24T05:28:34.895Z,98.22
2019-01-24T05:29:34.894Z,98.50
2019-01-24T05:30:34.895Z,99.26
2019-01-24T05:31:34.891Z,99.63
2019-01-24T05:32:34.891Z,99.26
2019-01-24T05:33:34.888Z,99.91
2019-01-24T05:34:34.891Z,99.99
2019-01-24T05:35:35.158Z,99.99
2019-01-24T05:36:34.885Z,99.99
2019-01-24T05:37:34.886Z,99.99
2019-01-24T05:38:34.890Z,99.99
2019-01-24T05:39:34.887Z,99.99
2019-01-24T05:40:34.881Z,99.99
2019-01-24T05:41:34.883Z,99.99
2019-01-24T05:42:34.877Z,99.99
2019-01-24T05:43:34.880Z,99.99
2019-01-24T05:44:34.876Z,99.99
2019-01-24T05:45:34.874Z,99.99
2019-01-24T05:46:34.879Z,99.99
2019-01-24T05:47:34.870Z,99.07
2019-01-24T05:48:34.870Z,99.16
2019-01-24T05:49:34.870Z,99.26
2019-01-24T05:50:34.873Z,99.35
2019-01-24T05:51:34.865Z,98.88
2019-01-24T05:52:34.865Z,98.97
2019-01-24T05:53:34.868Z,98.60
2019-01-24T05:54:34.862Z,98.60
2019-01-24T05:55:34.865Z,97.75
2019-01-24T05:56:34.862Z,97.28
2019-01-24T05:57:34.861Z,96.53
2019-01-24T05:58:34.859Z,96.81
2019-01-24T05:59:34.856Z,96.62
2019-01-24T06:00:34.852Z,96.53
2019-01-24T06:01:34.857Z,95.96
2019-01-24T06:02:34.852Z,96.06
2019-01-24T06:03:34.851Z,95.59
2019-01-24T06:04:34.854Z,97.09
2019-01-24T06:05:41.574Z,98.41
2019-01-24T06:06:34.856Z,99.26
2019-01-24T06:07:34.848Z,99.99
2019-01-24T06:08:34.851Z,99.99
2019-01-24T06:09:34.846Z,99.99
2019-01-24T06:10:34.848Z,99.99
2019-01-24T06:11:34.846Z,99.99
2019-01-24T06:12:34.840Z,99.99
2019-01-24T06:13:34.840Z,99.99
2019-01-24T06:14:34.841Z,99.99
2019-01-24T06:15:34.838Z,99.99
2019-01-24T06:16:34.845Z,99.99
2019-01-24T06:17:34.840Z,99.99
2019-01-24T06:18:34.842Z,99.99
2019-01-24T06:19:34.837Z,99.99
2019-01-24T06:20:34.837Z,99.99
2019-01-24T06:21:34.833Z,99.99
2019-01-24T06:22:34.834Z,99.99
2019-01-24T06:23:34.844Z,99.99
2019-01-24T06:24:34.833Z,99.73
2019-01-24T06:25:34.835Z,98.88
2019-01-24T06:26:34.834Z,99.99
2019-01-24T06:27:34.826Z,99.99
2019-01-24T06:28:34.830Z,99.99
2019-01-24T06:29:34.826Z,99.99
2019-01-24T06:30:34.827Z,99.99
2019-01-24T06:31:34.828Z,99.99
2019-01-24T06:32:34.822Z,99.99
2019-01-24T06:33:34.824Z,99.99
2019-01-24T06:34:34.823Z,99.99
2019-01-24T06:35:34.824Z,99.99
2019-01-24T06:36:34.817Z,99.99
2019-01-24T06:37:34.817Z,99.99
2019-01-24T06:38:34.816Z,99.99
2019-01-24T06:39:34.814Z,99.99
2019-01-24T06:40:34.812Z,99.99
2019-01-24T06:41:34.812Z,99.99
2019-01-24T06:42:34.812Z,99.99
2019-01-24T06:43:34.809Z,99.99
2019-01-24T06:44:34.805Z,99.99
2019-01-24T06:45:34.805Z,99.99
2019-01-24T06:46:34.806Z,99.99
2019-01-24T06:47:34.802Z,99.99
2019-01-24T06:48:34.802Z,99.99
2019-01-24T06:49:34.802Z,99.99
2019-01-24T06:50:34.799Z,99.99
2019-01-24T06:51:34.799Z,99.99
2019-01-24T06:52:34.798Z,99.99
2019-01-24T06:53:34.797Z,99.99
2019-01-24T06:54:34.797Z,99.99
2019-01-24T06:55:34.794Z,99.99
2019-01-24T06:56:34.793Z,99.99
2019-01-24T06:57:34.791Z,99.99
2019-01-24T06:58:34.793Z,99.99
2019-01-24T06:59:34.789Z,99.99
2019-01-24T07:00:34.786Z,99.99
2019-01-24T07:01:34.788Z,99.99
2019-01-24T07:02:34.788Z,99.99
2019-01-24T07:03:34.784Z,99.99
2019-01-24T07:04:34.783Z,99.99
2019-01-24T07:05:34.784Z,99.99
2019-01-24T07:06:34.784Z,99.99
2019-01-24T07:07:34.779Z,99.99
2019-01-24T07:08:34.778Z,99.63
2019-01-24T07:09:34.779Z,98.41
2019-01-24T07:10:34.779Z,98.60
2019-01-24T07:11:34.776Z,97.47
2019-01-24T07:12:34.778Z,97.85
2019-01-24T07:13:34.775Z,97.28
2019-01-24T07:14:34.778Z,97.28
2019-01-24T07:15:34.774Z,97.61
2019-01-24T07:16:34.775Z,97.61
2019-01-24T07:17:34.772Z,97.52
2019-01-24T07:18:34.771Z,97.52
2019-01-24T07:19:34.768Z,97.80
2019-01-24T07:20:34.769Z,97.80
2019-01-24T07:21:34.772Z,97.24
2019-01-24T07:22:34.772Z,97.24
2019-01-24T07:23:34.767Z,97.52
2019-01-24T07:24:34.767Z,96.77
2019-01-24T07:25:34.768Z,96.77
2019-01-24T07:26:34.766Z,96.39
2019-01-24T07:27:34.762Z,96.39
2019-01-24T07:28:34.766Z,96.30
2019-01-24T07:29:34.762Z,96.48
2019-01-24T07:30:34.764Z,96.58
2019-01-24T07:31:34.762Z,96.39
2019-01-24T07:32:34.764Z,96.20
2019-01-24T07:33:34.761Z,96.01
2019-01-24T07:34:34.762Z,95.82
2019-01-24T07:35:34.760Z,95.82
2019-01-24T07:36:34.772Z,94.88
2019-01-24T07:37:34.758Z,95.35
2019-01-24T07:38:34.759Z,94.88
2019-01-24T07:39:34.756Z,94.79
2019-01-24T07:40:34.757Z,94.13
2019-01-24T07:41:34.759Z,93.94
2019-01-24T07:42:34.756Z,93.28
2019-01-24T07:43:34.754Z,93.37
2019-01-24T07:44:34.756Z,93.09
2019-01-24T07:45:34.756Z,92.99
2019-01-24T07:46:34.752Z,92.71
2019-01-24T07:47:34.754Z,92.52
2019-01-24T07:48:34.754Z,92.33
2019-01-24T07:49:34.751Z,91.67
2019-01-24T07:50:34.752Z,91.77
2019-01-24T07:51:34.754Z,91.58
2019-01-24T07:52:34.749Z,91.20
2019-01-24T07:53:34.753Z,90.92
2019-01-24T07:54:34.765Z,90.45
2019-01-24T07:55:34.747Z,90.45
2019-01-24T07:56:34.749Z,90.17
2019-01-24T07:57:34.751Z,90.26
2019-01-24T07:58:34.750Z,90.26
2019-01-24T07:59:34.747Z,90.17
2019-01-24T08:00:34.746Z,89.89
2019-01-24T08:01:34.749Z,90.17
2019-01-24T08:02:34.749Z,91.02
2019-01-24T08:03:34.746Z,91.20
2019-01-24T08:04:34.754Z,91.96
2019-01-24T08:05:34.745Z,90.92
2019-01-24T08:06:34.751Z,90.12
2019-01-24T08:07:34.745Z,90.08
2019-01-24T08:08:34.748Z,90.22
2019-01-24T08:09:34.744Z,91.16
2019-01-24T08:10:34.746Z,92.00
2019-01-24T08:11:34.747Z,92.66
2019-01-24T08:12:34.744Z,92.57
2019-01-24T08:13:34.743Z,92.95
2019-01-24T08:14:34.745Z,93.23
2019-01-24T08:15:34.741Z,93.04
2019-01-24T08:16:34.742Z,93.42
2019-01-24T08:17:34.746Z,93.42
2019-01-24T08:18:34.740Z,93.13
2019-01-24T08:19:34.741Z,92.76
2019-01-24T08:20:34.744Z,93.09
2019-01-24T08:21:34.742Z,93.28
2019-01-24T08:22:34.740Z,93.28
2019-01-24T08:23:34.740Z,93.18
2019-01-24T08:24:34.740Z,93.09
2019-01-24T08:25:34.738Z,92.14
2019-01-24T08:26:34.738Z,92.05
2019-01-24T08:27:34.737Z,91.49
2019-01-24T08:28:34.734Z,91.39
2019-01-24T08:29:34.736Z,90.64
2019-01-24T08:30:34.734Z,90.45
2019-01-24T08:31:34.732Z,89.98
2019-01-24T08:32:34.735Z,89.79
2019-01-24T08:33:34.732Z,89.51
2019-01-24T08:34:34.735Z,89.42
2019-01-24T08:35:34.731Z,89.04
2019-01-24T08:36:34.730Z,89.42
2019-01-24T08:37:34.732Z,89.13
2019-01-24T08:38:34.732Z,89.79
2019-01-24T08:39:34.734Z,90.45
2019-01-24T08:40:34.730Z,90.64
2019-01-24T08:41:34.730Z,90.73
2019-01-24T08:42:34.730Z,90.36
2019-01-24T08:43:34.727Z,90.73
2019-01-24T08:44:34.730Z,90.83
2019-01-24T08:45:34.729Z,90.73
2019-01-24T08:46:34.729Z,89.51
2019-01-24T08:47:34.728Z,88.66
2019-01-24T08:48:34.729Z,89.42
2019-01-24T08:49:34.729Z,89.89
2019-01-24T08:50:34.730Z,89.13
2019-01-24T08:51:34.727Z,89.70
2019-01-24T08:52:34.728Z,89.61
2019-01-24T08:53:34.727Z,89.70
2019-01-24T08:54:34.725Z,88.85
2019-01-24T08:55:34.725Z,88.57
2019-01-24T08:56:34.729Z,89.61
2019-01-24T08:57:34.727Z,89.13
2019-01-24T08:58:34.726Z,89.04
2019-01-24T08:59:34.728Z,88.95
2019-01-24T09:00:34.726Z,88.28
2019-01-24T09:01:34.729Z,87.91
2019-01-24T09:02:34.725Z,88.19
2019-01-24T09:03:34.725Z,87.72
2019-01-24T09:04:34.724Z,85.83
2019-01-24T09:05:34.724Z,85.36
2019-01-24T09:06:34.725Z,83.58
2019-01-24T09:07:34.729Z,84.23
2019-01-24T09:08:34.726Z,83.86
2019-01-24T09:09:34.726Z,83.95
2019-01-24T09:10:34.723Z,84.61
2019-01-24T09:11:34.724Z,87.15
2019-01-24T09:12:34.725Z,86.21
2019-01-24T09:13:34.724Z,86.40
2019-01-24T09:14:34.725Z,85.36
2019-01-24T09:15:34.725Z,83.95
2019-01-24T09:16:34.726Z,83.95
2019-01-24T09:17:34.725Z,85.36
2019-01-24T09:18:34.727Z,85.27
2019-01-24T09:19:34.725Z,85.88
2019-01-24T09:20:34.726Z,86.82
2019-01-24T09:21:34.734Z,87.19
2019-01-24T09:22:34.727Z,86.72
2019-01-24T09:23:34.726Z,86.63
2019-01-24T09:24:34.723Z,84.28
2019-01-24T09:25:34.724Z,83.33
2019-01-24T09:26:34.727Z,84.56
2019-01-24T09:27:34.724Z,82.67
2019-01-24T09:28:34.727Z,84.37
2019-01-24T09:29:34.728Z,82.95
2019-01-24T09:30:34.731Z,84.47
2019-01-24T09:31:34.729Z,80.79
2019-01-24T09:32:34.730Z,83.05
2019-01-24T09:33:34.727Z,80.98
2019-01-24T09:34:34.733Z,83.33
2019-01-24T09:35:34.733Z,82.48
2019-01-24T09:36:34.733Z,80.13
2019-01-24T09:37:34.732Z,80.51
2019-01-24T09:38:34.736Z,78.52
2019-01-24T09:39:34.732Z,78.71
2019-01-24T09:40:34.737Z,81.35
2019-01-24T09:41:34.736Z,84.28
2019-01-24T09:42:34.736Z,82.29
2019-01-24T09:43:34.738Z,83.80
2019-01-24T09:44:34.737Z,83.05
2019-01-24T09:45:34.745Z,81.92
2019-01-24T09:46:34.741Z,79.47
2019-01-24T09:47:34.741Z,79.28
2019-01-24T09:48:34.743Z,77.96
2019-01-24T09:49:34.744Z,77.77
2019-01-24T09:50:34.744Z,78.90
2019-01-24T09:51:34.746Z,80.51
2019-01-24T09:52:34.747Z,79.66
2019-01-24T09:53:34.746Z,78.24
2019-01-24T09:54:34.748Z,77.96
2019-01-24T09:55:34.753Z,77.86
2019-01-24T09:56:34.750Z,79.66
2019-01-24T09:57:34.751Z,78.24
2019-01-24T09:58:34.754Z,76.64
2019-01-24T09:59:34.754Z,74.47
2019-01-24T10:00:34.753Z,74.95
2019-01-24T10:01:34.757Z,75.51
2019-01-24T10:02:34.757Z,73.15
2019-01-24T10:03:34.758Z,72.68
2019-01-24T10:04:34.759Z,72.77
2019-01-24T10:05:34.763Z,72.11
2019-01-24T10:06:36.421Z,73.06
2019-01-24T10:07:34.763Z,74.57
2019-01-24T10:08:34.766Z,74.10
2019-01-24T10:09:34.767Z,73.66
2019-01-24T10:10:34.767Z,73.62
2019-01-24T10:11:34.770Z,73.19
2019-01-24T10:12:34.772Z,72.53
2019-01-24T10:13:34.774Z,72.72
2019-01-24T10:14:34.775Z,71.87
2019-01-24T10:15:34.778Z,72.34
2019-01-24T10:16:34.780Z,75.07
2019-01-24T10:17:34.780Z,73.75
2019-01-24T10:18:34.784Z,74.32
2019-01-24T10:19:34.788Z,74.00
2019-01-24T10:20:34.799Z,73.62
2019-01-24T10:21:34.791Z,77.81
2019-01-24T10:22:34.791Z,78.09
2019-01-24T10:23:34.791Z,75.54
2019-01-24T10:24:34.793Z,74.88
2019-01-24T10:25:34.796Z,73.32
2019-01-24T10:26:34.801Z,72.66
2019-01-24T10:27:34.800Z,71.62
2019-01-24T10:28:34.803Z,70.02
2019-01-24T10:29:34.804Z,67.85
2019-01-24T10:30:34.805Z,67.75
2019-01-24T10:31:34.809Z,68.32
2019-01-24T10:32:34.810Z,67.47
2019-01-24T10:33:34.818Z,66.34
2019-01-24T10:34:34.816Z,65.11
2019-01-24T10:35:34.825Z,65.99
2019-01-24T10:36:34.828Z,65.42
2019-01-24T10:37:34.830Z,64.45
2019-01-24T10:38:34.827Z,67.47
2019-01-24T10:39:34.834Z,67.57
2019-01-24T10:40:34.839Z,65.90
2019-01-24T10:41:34.841Z,65.23
2019-01-24T10:42:34.845Z,63.95
2019-01-24T10:43:34.845Z,63.54
2019-01-24T10:44:34.848Z,62.44
2019-01-24T10:45:34.852Z,61.02
2019-01-24T10:46:34.852Z,61.40
2019-01-24T10:47:34.855Z,59.92
2019-01-24T10:48:34.858Z,58.59
2019-01-24T10:49:34.864Z,58.40
2019-01-24T10:50:35.305Z,57.77
2019-01-24T10:51:34.871Z,56.26
2019-01-24T10:52:34.875Z,55.22
2019-01-24T10:53:34.879Z,54.93
2019-01-24T10:54:34.886Z,53.05
2019-01-24T10:55:34.888Z,51.81
2019-01-24T10:56:35.303Z,51.91
2019-01-24T10:57:34.898Z,52.67
2019-01-24T10:58:34.903Z,53.52
2019-01-24T10:59:34.906Z,55.66
2019-01-24T11:00:34.909Z,56.82
2019-01-24T11:01:34.916Z,56.63
2019-01-24T11:02:34.923Z,55.88
2019-01-24T11:03:34.928Z,55.22
2019-01-24T11:04:34.933Z,53.70
2019-01-24T11:05:34.937Z,54.08
2019-01-24T11:06:34.941Z,54.87
2019-01-24T11:07:34.945Z,53.64
2019-01-24T11:08:34.949Z,52.31
2019-01-24T11:09:34.957Z,51.53
2019-01-24T11:10:34.962Z,52.67
2019-01-24T11:11:34.972Z,53.99
2019-01-24T11:12:34.975Z,55.91
2019-01-24T11:13:34.980Z,55.25
2019-01-24T11:14:34.985Z,55.41
2019-01-24T11:15:35.572Z,56.32
2019-01-24T11:16:35.036Z,59.03
2019-01-24T11:17:35.005Z,60.93
2019-01-24T11:18:35.011Z,62.25
2019-01-24T11:19:35.014Z,63.57
2019-01-24T11:20:35.024Z,63.92
2019-01-24T11:21:35.029Z,67.13
2019-01-24T11:22:35.037Z,68.44
2019-01-24T11:23:35.036Z,69.92
2019-01-24T11:24:35.046Z,71.94
2019-01-24T11:25:35.051Z,70.34
2019-01-24T11:26:35.056Z,68.63
2019-01-24T11:27:35.065Z,67.50
2019-01-24T11:28:35.069Z,66.65
2019-01-24T11:29:35.074Z,65.61
2019-01-24T11:30:35.079Z,65.65
2019-01-24T11:31:35.084Z,65.52
2019-01-24T11:32:35.092Z,66.47
2019-01-24T11:33:35.097Z,66.28
2019-01-24T11:34:35.104Z,66.56
2019-01-24T11:35:35.113Z,68.07
2019-01-24T11:36:35.115Z,67.50
2019-01-24T11:37:35.145Z,67.28
2019-01-24T11:38:35.131Z,69.58
2019-01-24T11:39:35.136Z,69.96
2019-01-24T11:40:35.147Z,69.07
2019-01-24T11:41:35.142Z,69.35
2019-01-24T11:42:35.153Z,68.98
2019-01-24T11:43:35.156Z,69.54
2019-01-24T11:44:36.131Z,70.02
2019-01-24T11:45:35.167Z,70.11
2019-01-24T11:46:35.174Z,71.11
2019-01-24T11:47:35.180Z,73.94
2019-01-24T11:48:35.183Z,74.51
2019-01-24T11:49:35.187Z,76.21
2019-01-24T11:50:35.195Z,77.34
2019-01-24T11:51:35.196Z,77.44
2019-01-24T11:52:35.202Z,75.83
2019-01-24T11:53:35.208Z,74.45
2019-01-24T11:54:35.211Z,73.22
2019-01-24T11:55:35.217Z,72.38
2019-01-24T11:56:35.223Z,71.25
2019-01-24T11:57:35.226Z,71.53
2019-01-24T11:58:35.231Z,71.62
2019-01-24T11:59:35.234Z,71.25
2019-01-24T12:00:35.239Z,70.49
2019-01-24T12:01:35.242Z,69.73
2019-01-24T12:02:39.735Z,68.51
2019-01-24T12:03:35.250Z,67.38
2019-01-24T12:04:35.260Z,67.75
2019-01-24T12:05:35.261Z,67.81
2019-01-24T12:06:35.265Z,69.42
2019-01-24T12:07:35.268Z,69.89
2019-01-24T12:08:35.277Z,70.49
2019-01-24T12:09:35.278Z,71.53
2019-01-24T12:10:35.285Z,69.83
2019-01-24T12:11:35.285Z,69.60
2019-01-24T12:12:35.292Z,70.54
2019-01-24T12:13:35.294Z,72.15
2019-01-24T12:14:35.298Z,72.56
2019-01-24T12:15:35.301Z,71.25
2019-01-24T12:16:35.308Z,67.94
2019-01-24T12:17:35.312Z,67.09
2019-01-24T12:18:35.317Z,67.03
2019-01-24T12:19:35.321Z,65.52
2019-01-24T12:20:35.321Z,64.48
2019-01-24T12:21:35.330Z,64.11
2019-01-24T12:22:35.333Z,64.92
2019-01-24T12:23:35.336Z,65.86
2019-01-24T12:24:35.343Z,66.94
2019-01-24T12:25:35.348Z,65.96
2019-01-24T12:26:35.363Z,65.52
2019-01-24T12:27:35.355Z,65.14
2019-01-24T12:28:35.361Z,66.90
2019-01-24T12:29:35.365Z,66.05
2019-01-24T12:30:35.369Z,66.94
2019-01-24T12:31:35.373Z,65.90
2019-01-24T12:32:35.379Z,65.42
2019-01-24T12:33:35.385Z,64.67
2019-01-24T12:34:35.391Z,63.10
2019-01-24T12:35:35.392Z,62.85
2019-01-24T12:36:35.403Z,59.44
2019-01-24T12:37:35.407Z,57.37
2019-01-24T12:38:35.411Z,57.34
2019-01-24T12:39:35.413Z,59.00
2019-01-24T12:40:35.419Z,62.21
2019-01-24T12:41:35.428Z,63.92
2019-01-24T12:42:35.430Z,64.11
2019-01-24T12:43:35.438Z,63.07
2019-01-24T12:44:35.444Z,62.31
2019-01-24T12:45:35.452Z,64.39
2019-01-24T12:46:35.455Z,65.14
2019-01-24T12:47:35.461Z,65.90
2019-01-24T12:48:35.464Z,62.34
2019-01-24T12:49:35.471Z,61.49
2019-01-24T12:50:35.478Z,58.87
2019-01-24T12:51:35.481Z,55.98
2019-01-24T12:52:35.488Z,53.74